Terminal Aerodrome Forecast
Issued by NWS

Home | Current Version | Previous Version | Text Only | Print | Product List | Glossary On
Versions: 1 2 3 4 5 6 7 8 9 10 11 12 13 14 15 16 17 18 19 20 21 22 23 24
000
FTUS42 KFFC 261738
TAFPDK
TAF
KPDK 261738Z 2618/2718 03005KT P6SM SCT040 BKN250
      TEMPO 2620/2623 4SM TSRA BKN040CB
     FM270100 13005KT P6SM FEW080
     FM270900 13004KT P6SM SCT015
     FM271400 14005KT P6SM SCT035
     FM271700 27005KT P6SM SCT050 SCT250=

USA.gov is the U.S. government's official web portal to all federal, state and local government web resources and services.